Time;durP1;ratioP1;P1;durP2;ratioP2;P2;SDS_P1;SDS_P2;PMS_P1;PMS_P2;Temp;Humidity;BMP_temperature;BMP_pressure;BME280_temperature;BME280_humidity;BME280_pressure;Samples;Min_cycle;Max_cycle;Signal;HPM_P1;HPM_P2
2022/05/01 00:00:56;;;;;;;;;;;;;;;;;;5061823;28;19928;-72
2022/05/01 00:03:31;;;;;;;;;;;;;;;;;;5053536;28;19929;-74
2022/05/01 00:05:57;;;;;;;;;;;;;;;;;;5049573;28;19943;-74
2022/05/01 00:08:24;;;;;;;;;;;;;;;;;;5056151;28;19928;-74
2022/05/01 00:10:50;;;;;;;;;;;;;;;;;;5058984;28;20290;-75
2022/05/01 00:13:16;;;;;;;;;;;;;;;;;;5061632;28;19929;-75
2022/05/01 00:15:43;;;;;;;;;;;;;;;;;;5061973;28;19997;-74
2022/05/01 00:18:09;;;;;;;;;;;;;;;;;;5055030;28;20425;-74
2022/05/01 00:20:35;;;;;;;;;;;;;;;;;;5051993;28;19928;-73
2022/05/01 00:23:02;;;;;;;;;;;;;;;;;;5059589;28;20383;-73
2022/05/01 00:25:28;;;;;;;;;;;;;;;;;;5057758;28;19939;-75
2022/05/01 00:27:54;;;;;;;;;;;;;;;;;;5056827;28;19940;-74
2022/05/01 00:30:20;;;;;;;;;;;;;;;;;;5058323;28;19940;-72
2022/05/01 00:38:15;;;;;;;;;;;;;;;;;;5061741;28;19973;-74
2022/05/01 00:40:41;;;;;;;;;;;;;;;;;;5064114;28;19967;-72
2022/05/01 00:43:07;;;;;;;;;;;;;;;;;;5061898;28;20263;-74
2022/05/01 00:45:33;;;;;;;;;;;;;;;;;;5044887;28;20392;-74
2022/05/01 00:47:59;;;;;;;;;;;;;;;;;;5050692;28;20401;-72
2022/05/01 00:50:25;;;;;;;;;;;;;;;;;;5056006;28;19928;-73
2022/05/01 00:52:52;;;;;;;;;;;;;;;;;;5058395;28;19924;-74
2022/05/01 00:55:18;;;;;;;;;;;;;;;;;;5056248;28;19929;-74
2022/05/01 00:57:44;;;;;;;;;;;;;;;;;;5056661;28;20008;-74
2022/05/01 01:00:10;;;;;;;;;;;;;;;;;;5059270;28;19924;-72
2022/05/01 01:02:36;;;;;;;;;;;;;;;;;;5055202;28;20185;-74
2022/05/01 01:05:03;;;;;;;;;;;;;;;;;;5059395;28;19928;-73
2022/05/01 01:07:29;;;;;;;;;;;;;;;;;;5050940;28;20462;-73
2022/05/01 01:09:55;;;;;;;;;;;;;;;;;;5064236;28;19935;-73
2022/05/01 01:15:09;;;;;;;;;;;;;;;;;;5060912;28;19923;-73
2022/05/01 01:17:35;;;;;;;;;;;;;;;;;;5056601;28;20400;-72
2022/05/01 01:20:01;;;;;;;;;;;;;;;;;;5054658;28;20490;-73
2022/05/01 01:22:27;;;;;;;;;;;;;;;;;;5056758;28;20439;-74
2022/05/01 01:24:54;;;;;;;;;;;;;;;;;;5054161;28;19939;-74
2022/05/01 01:27:20;;;;;;;;;;;;;;;;;;5056927;28;20407;-75
2022/05/01 01:32:29;;;;;;;;;;;;;;;;;;5054336;28;20062;-75
2022/05/01 01:34:56;;;;;;;;;;;;;;;;;;5059786;28;20284;-74
2022/05/01 01:37:22;;;;;;;;;;;;;;;;;;5056646;28;20384;-71
2022/05/01 01:39:48;;;;;;;;;;;;;;;;;;5060012;28;19942;-73
2022/05/01 01:42:14;;;;;;;;;;;;;;;;;;5053976;28;20031;-73
2022/05/01 01:44:40;;;;;;;;;;;;;;;;;;5050026;28;20142;-71
2022/05/01 01:47:06;;;;;;;;;;;;;;;;;;5051203;28;19925;-73
2022/05/01 01:49:33;;;;;;;;;;;;;;;;;;5055861;28;20027;-73
2022/05/01 01:51:59;;;;;;;;;;;;;;;;;;5058809;28;19943;-73
2022/05/01 01:54:25;;;;;;;;;;;;;;;;;;5056197;28;20232;-74
2022/05/01 01:56:51;;;;;;;;;;;;;;;;;;5059415;28;20036;-74
2022/05/01 01:59:18;;;;;;;;;;;;;;;;;;5053218;28;19933;-74
2022/05/01 02:01:44;;;;;;;;;;;;;;;;;;5046545;28;19928;-72
2022/05/01 02:04:11;;;;;;;;;;;;;;;;;;5047107;28;20193;-74
2022/05/01 02:06:37;;;;;;;;;;;;;;;;;;5048643;28;20950;-74
2022/05/01 02:09:06;;;;;;;;;;;;;;;;;;5075776;28;20311;-73
2022/05/01 02:11:32;;;;;;;;;;;;;;;;;;5075921;28;19947;-75
2022/05/01 02:13:58;;;;;;;;;;;;;;;;;;5081513;28;20201;-74
2022/05/01 02:16:25;;;;;;;;;;;;;;;;;;5070811;28;19936;-74
2022/05/01 02:18:52;;;;;;;;;;;;;;;;;;5066166;28;19934;-73
2022/05/01 02:21:36;;;;;;;;;;;;;;;;;;5078512;28;19988;-76
2022/05/01 02:24:03;;;;;;;;;;;;;;;;;;5070258;28;19929;-77
2022/05/01 02:26:29;;;;;;;;;;;;;;;;;;5085685;28;19932;-74
2022/05/01 02:28:55;;;;;;;;;;;;;;;;;;5070374;28;19929;-76
2022/05/01 02:31:22;;;;;;;;;;;;;;;;;;4730283;28;10000545;-76
2022/05/01 02:33:48;;;;;;;;;;;;;;;;;;5075385;28;19936;-73
2022/05/01 02:36:15;;;;;;;;;;;;;;;;;;5084563;28;20175;-73
2022/05/01 02:38:42;;;;;;;;;;;;;;;;;;5091417;28;19912;-78
2022/05/01 02:41:08;;;;;;;;;;;;;;;;;;5092901;28;19924;-78
2022/05/01 02:43:34;;;;;;;;;;;;;;;;;;5086647;28;19912;-76
2022/05/01 02:46:00;;;;;;;;;;;;;;;;;;5086848;28;19932;-80
2022/05/01 02:48:26;;;;;;;;;;;;;;;;;;5081815;28;19924;-77
2022/05/01 02:50:53;;;;;;;;;;;;;;;;;;5076715;28;19924;-76
2022/05/01 02:53:19;;;;;;;;;;;;;;;;;;5080495;28;19975;-77
2022/05/01 02:55:45;;;;;;;;;;;;;;;;;;5094317;28;19924;-78
2022/05/01 02:58:11;;;;;;;;;;;;;;;;;;5086038;28;19999;-79
2022/05/01 03:00:37;;;;;;;;;;;;;;;;;;5093958;28;19939;-77
2022/05/01 03:03:03;;;;;;;;;;;;;;;;;;5080403;28;20010;-78
2022/05/01 03:05:30;;;;;;;;;;;;;;;;;;5078644;28;19932;-77
2022/05/01 03:07:56;;;;;;;;;;;;;;;;;;5081042;28;19944;-76
2022/05/01 03:10:22;;;;;;;;;;;;;;;;;;5089757;28;19921;-79
2022/05/01 03:12:48;;;;;;;;;;;;;;;;;;5083860;28;19913;-77
2022/05/01 03:15:15;;;;;;;;;;;;;;;;;;5090011;28;19916;-76
2022/05/01 03:23:09;;;;;;;;;;;;;;;;;;5088271;28;19930;-76
2022/05/01 03:25:35;;;;;;;;;;;;;;;;;;5083501;28;19922;-75
2022/05/01 03:28:01;;;;;;;;;;;;;;;;;;5085812;28;20354;-73
2022/05/01 03:30:27;;;;;;;;;;;;;;;;;;5084802;28;20177;-75
2022/05/01 03:32:54;;;;;;;;;;;;;;;;;;5087145;28;19924;-72
2022/05/01 03:35:20;;;;;;;;;;;;;;;;;;5082413;28;19913;-74
2022/05/01 03:37:46;;;;;;;;;;;;;;;;;;5087666;28;20000;-76
2022/05/01 03:40:13;;;;;;;;;;;;;;;;;;5086652;28;19935;-73
2022/05/01 03:42:39;;;;;;;;;;;;;;;;;;5088115;22;19925;-71
2022/05/01 03:45:05;;;;;;;;;;;;;;;;;;5067588;28;19937;-71
2022/05/01 03:47:32;;;;;;;;;;;;;;;;;;5073592;28;19939;-72
2022/05/01 03:49:58;;;;;;;;;;;;;;;;;;5077703;28;19936;-70
2022/05/01 03:52:25;;;;;;;;;;;;;;;;;;5068398;28;19952;-71
2022/05/01 03:54:51;;;;;;;;;;;;;;;;;;5059564;28;19925;-70
2022/05/01 03:57:17;;;;;;;;;;;;;;;;;;5062188;28;19924;-70
2022/05/01 03:59:43;;;;;;;;;;;;;;;;;;5058042;28;19925;-71
2022/05/01 04:02:09;;;;;;;;;;;;;;;;;;5062453;28;19931;-71
2022/05/01 04:04:35;;;;;;;;;;;;;;;;;;5060348;28;19940;-72
2022/05/01 04:07:01;;;;;;;;;;;;;;;;;;5060024;28;19986;-71
2022/05/01 04:09:28;;;;;;;;;;;;;;;;;;5059822;28;19931;-71
2022/05/01 04:11:54;;;;;;;;;;;;;;;;;;5059855;28;20091;-70
2022/05/01 04:14:21;;;;;;;;;;;;;;;;;;5059052;28;19939;-71
2022/05/01 04:16:47;;;;;;;;;;;;;;;;;;5055961;28;19929;-72
2022/05/01 04:19:13;;;;;;;;;;;;;;;;;;5052859;28;19925;-73
2022/05/01 04:21:39;;;;;;;;;;;;;;;;;;5055579;28;19924;-69
2022/05/01 04:24:06;;;;;;;;;;;;;;;;;;5059570;28;19925;-69
2022/05/01 04:26:32;;;;;;;;;;;;;;;;;;5061190;28;19964;-71
2022/05/01 04:31:41;;;;;;;;;;;;;;;;;;5053304;28;19942;-69
2022/05/01 04:34:08;;;;;;;;;;;;;;;;;;5057742;28;20386;-70
2022/05/01 04:36:34;;;;;;;;;;;;;;;;;;5059150;28;19955;-70
2022/05/01 04:39:00;;;;;;;;;;;;;;;;;;5056521;28;20277;-69
2022/05/01 04:41:26;;;;;;;;;;;;;;;;;;5055540;28;19987;-70
2022/05/01 04:43:52;;;;;;;;;;;;;;;;;;5049556;28;19939;-70
2022/05/01 04:46:18;;;;;;;;;;;;;;;;;;5047625;28;19940;-68
2022/05/01 04:48:44;;;;;;;;;;;;;;;;;;5052826;28;19936;-71
2022/05/01 04:51:11;;;;;;;;;;;;;;;;;;5059084;28;19924;-70
2022/05/01 04:53:37;;;;;;;;;;;;;;;;;;5059354;28;19929;-70
2022/05/01 04:58:43;;;;;;;;;;;;;;;;;;5058437;28;19960;-70
2022/05/01 05:01:09;;;;;;;;;;;;;;;;;;5061028;28;20094;-72
2022/05/01 05:03:35;;;;;;;;;;;;;;;;;;5053063;28;19932;-72
2022/05/01 05:06:01;;;;;;;;;;;;;;;;;;5058197;28;19935;-72
2022/05/01 05:11:11;;;;;;;;;;;;;;;;;;5056567;28;20483;-69
2022/05/01 05:13:37;;;;;;;;;;;;;;;;;;5065427;28;19934;-72
2022/05/01 05:16:08;;;;;;;;;;;;;;;;;;5058321;28;20255;-72
2022/05/01 05:18:36;;;;;;;;;;;;;;;;;;5050198;28;20407;-73
2022/05/01 05:21:03;;;;;;;;;;;;;;;;;;5056268;28;19929;-70
2022/05/01 05:23:29;;;;;;;;;;;;;;;;;;5062294;28;19931;-72
2022/05/01 05:25:55;;;;;;;;;;;;;;;;;;5056845;28;19929;-71
2022/05/01 05:28:21;;;;;;;;;;;;;;;;;;5058351;28;20031;-71
2022/05/01 05:30:48;;;;;;;;;;;;;;;;;;5063032;28;19944;-70
2022/05/01 05:33:14;;;;;;;;;;;;;;;;;;5059187;28;20262;-73
2022/05/01 05:35:41;;;;;;;;;;;;;;;;;;5058422;28;19931;-70
2022/05/01 05:38:07;;;;;;;;;;;;;;;;;;5058735;28;19957;-70
2022/05/01 05:40:33;;;;;;;;;;;;;;;;;;5059802;28;20325;-72
2022/05/01 05:42:59;;;;;;;;;;;;;;;;;;5052429;28;20576;-72
2022/05/01 05:45:25;;;;;;;;;;;;;;;;;;5058901;28;19954;-72
2022/05/01 05:47:51;;;;;;;;;;;;;;;;;;5053263;28;19960;-71
2022/05/01 05:50:17;;;;;;;;;;;;;;;;;;5056880;28;19924;-72
2022/05/01 05:52:43;;;;;;;;;;;;;;;;;;5060291;28;19932;-72
2022/05/01 05:55:10;;;;;;;;;;;;;;;;;;5058610;28;19925;-71
2022/05/01 05:57:36;;;;;;;;;;;;;;;;;;5056846;28;20002;-72
2022/05/01 06:00:02;;;;;;;;;;;;;;;;;;5056253;28;20307;-71
2022/05/01 06:02:29;;;;;;;;;;;;;;;;;;5065363;28;20234;-74
2022/05/01 06:04:55;;;;;;;;;;;;;;;;;;5060780;28;19924;-71
2022/05/01 06:07:21;;;;;;;;;;;;;;;;;;5056920;28;19939;-74
2022/05/01 06:09:47;;;;;;;;;;;;;;;;;;5056206;28;19928;-71
2022/05/01 06:12:13;;;;;;;;;;;;;;;;;;5057141;28;20341;-71
2022/05/01 06:14:39;;;;;;;;;;;;;;;;;;5058556;28;20407;-73
2022/05/01 06:17:06;;;;;;;;;;;;;;;;;;5062183;28;20454;-73
2022/05/01 06:19:32;;;;;;;;;;;;;;;;;;5050222;28;19924;-73
2022/05/01 06:21:58;;;;;;;;;;;;;;;;;;5057935;28;19936;-72
2022/05/01 06:24:24;;;;;;;;;;;;;;;;;;5059302;28;19928;-73
2022/05/01 06:26:50;;;;;;;;;;;;;;;;;;5058183;28;20238;-74
2022/05/01 06:29:16;;;;;;;;;;;;;;;;;;5053594;28;19928;-72
2022/05/01 06:31:42;;;;;;;;;;;;;;;;;;5061687;28;19924;-72
2022/05/01 06:34:08;;;;;;;;;;;;;;;;;;5047858;28;19947;-72
2022/05/01 06:36:35;;;;;;;;;;;;;;;;;;5056279;28;20395;-74
2022/05/01 06:39:01;;;;;;;;;;;;;;;;;;5062982;28;19925;-74
2022/05/01 06:41:27;;;;;;;;;;;;;;;;;;5054916;28;19979;-72
2022/05/01 06:43:53;;;;;;;;;;;;;;;;;;5053074;28;19928;-74
2022/05/01 06:46:19;;;;;;;;;;;;;;;;;;5059008;28;19935;-72
2022/05/01 06:48:45;;;;;;;;;;;;;;;;;;5061354;28;19928;-71
2022/05/01 06:51:11;;;;;;;;;;;;;;;;;;5058342;28;19971;-73
2022/05/01 06:53:37;;;;;;;;;;;;;;;;;;5058640;28;20023;-71
2022/05/01 06:56:04;;;;;;;;;;;;;;;;;;5055536;28;20002;-72
2022/05/01 06:58:31;;;;;;;;;;;;;;;;;;5064474;28;20410;-74
2022/05/01 07:00:57;;;;;;;;;;;;;;;;;;5071873;28;19924;-77
2022/05/01 07:03:23;;;;;;;;;;;;;;;;;;5061849;28;20027;-72
2022/05/01 07:05:49;;;;;;;;;;;;;;;;;;5062585;28;19929;-73
2022/05/01 07:08:16;;;;;;;;;;;;;;;;;;5060866;28;19925;-72
2022/05/01 07:10:42;;;;;;;;;;;;;;;;;;5061804;28;19925;-72
2022/05/01 07:13:09;;;;;;;;;;;;;;;;;;5056953;28;19932;-74
2022/05/01 07:15:35;;;;;;;;;;;;;;;;;;5063868;28;20012;-72
2022/05/01 07:18:01;;;;;;;;;;;;;;;;;;5054638;28;19929;-71
2022/05/01 07:20:28;;;;;;;;;;;;;;;;;;5055848;28;20003;-73
2022/05/01 07:22:54;;;;;;;;;;;;;;;;;;5064053;28;19929;-74
2022/05/01 07:25:20;;;;;;;;;;;;;;;;;;5073588;28;19928;-73
2022/05/01 07:27:46;;;;;;;;;;;;;;;;;;5064699;28;19925;-75
2022/05/01 07:30:12;;;;;;;;;;;;;;;;;;5075234;28;19931;-73
2022/05/01 07:32:38;;;;;;;;;;;;;;;;;;5078953;28;20110;-74
2022/05/01 07:35:04;;;;;;;;;;;;;;;;;;5074893;28;19939;-76
2022/05/01 07:37:30;;;;;;;;;;;;;;;;;;5068199;28;19931;-73
2022/05/01 07:39:57;;;;;;;;;;;;;;;;;;5068331;28;19931;-74
2022/05/01 07:42:23;;;;;;;;;;;;;;;;;;5065630;28;19925;-74
2022/05/01 07:44:49;;;;;;;;;;;;;;;;;;5059368;28;19960;-75
2022/05/01 07:47:16;;;;;;;;;;;;;;;;;;5065939;28;19928;-76
2022/05/01 07:49:42;;;;;;;;;;;;;;;;;;5082906;28;19936;-76
2022/05/01 07:52:09;;;;;;;;;;;;;;;;;;5091292;28;19912;-74
2022/05/01 07:54:35;;;;;;;;;;;;;;;;;;5085345;28;19925;-74
2022/05/01 07:57:01;;;;;;;;;;;;;;;;;;5087099;28;19912;-75
2022/05/01 07:59:27;;;;;;;;;;;;;;;;;;5083155;28;19996;-73
2022/05/01 08:01:54;;;;;;;;;;;;;;;;;;5083411;28;19992;-74
2022/05/01 08:04:29;;;;;;;;;;;;;;;;;;5080461;28;19933;-73
2022/05/01 08:06:55;;;;;;;;;;;;;;;;;;5079310;28;19932;-71
2022/05/01 08:09:22;;;;;;;;;;;;;;;;;;5078538;28;19924;-72
2022/05/01 08:11:48;;;;;;;;;;;;;;;;;;5079950;28;19992;-72
2022/05/01 08:14:14;;;;;;;;;;;;;;;;;;5080716;28;20179;-72
2022/05/01 08:16:40;;;;;;;;;;;;;;;;;;5085369;28;19925;-73
2022/05/01 08:21:50;;;;;;;;;;;;;;;;;;5074395;28;19963;-73
2022/05/01 08:24:16;;;;;;;;;;;;;;;;;;5072686;28;20024;-72
2022/05/01 08:26:47;;;;;;;;;;;;;;;;;;5069819;28;19931;-73
2022/05/01 08:29:13;;;;;;;;;;;;;;;;;;5055956;28;19975;-74
2022/05/01 08:31:39;;;;;;;;;;;;;;;;;;5063724;28;19932;-72
2022/05/01 08:34:05;;;;;;;;;;;;;;;;;;5058960;28;20202;-74
2022/05/01 08:36:31;;;;;;;;;;;;;;;;;;5060478;28;19970;-73
2022/05/01 08:38:57;;;;;;;;;;;;;;;;;;5057617;28;19932;-72
2022/05/01 08:41:24;;;;;;;;;;;;;;;;;;5063544;28;19962;-72
2022/05/01 08:43:50;;;;;;;;;;;;;;;;;;5049758;28;19924;-73
2022/05/01 08:46:16;;;;;;;;;;;;;;;;;;5057955;28;19931;-74
2022/05/01 08:48:42;;;;;;;;;;;;;;;;;;5073146;28;19929;-71
2022/05/01 08:51:08;;;;;;;;;;;;;;;;;;5071288;28;19924;-74
2022/05/01 08:53:34;;;;;;;;;;;;;;;;;;5068407;28;19929;-73
2022/05/01 08:56:01;;;;;;;;;;;;;;;;;;5064178;28;19929;-72
2022/05/01 08:58:27;;;;;;;;;;;;;;;;;;5066862;28;19925;-72
2022/05/01 09:00:53;;;;;;;;;;;;;;;;;;5067885;28;20449;-72
2022/05/01 09:03:19;;;;;;;;;;;;;;;;;;5067636;28;20355;-72
2022/05/01 09:05:45;;;;;;;;;;;;;;;;;;5064603;28;19939;-71
2022/05/01 09:08:11;;;;;;;;;;;;;;;;;;5059189;28;19939;-72
2022/05/01 09:10:37;;;;;;;;;;;;;;;;;;5063364;28;19936;-73
2022/05/01 09:13:03;;;;;;;;;;;;;;;;;;5057894;28;20171;-73
2022/05/01 09:15:29;;;;;;;;;;;;;;;;;;5065021;28;19925;-73
2022/05/01 09:17:55;;;;;;;;;;;;;;;;;;5048111;28;19952;-71
2022/05/01 09:20:22;;;;;;;;;;;;;;;;;;5056213;28;20043;-75
2022/05/01 09:22:48;;;;;;;;;;;;;;;;;;5061961;28;19932;-74
2022/05/01 09:25:14;;;;;;;;;;;;;;;;;;5059271;28;20391;-72
2022/05/01 09:27:40;;;;;;;;;;;;;;;;;;5051824;28;20408;-74
2022/05/01 09:30:06;;;;;;;;;;;;;;;;;;5052933;28;20295;-76
2022/05/01 09:32:32;;;;;;;;;;;;;;;;;;5061335;28;19928;-74
2022/05/01 09:35:00;;;;;;;;;;;;;;;;;;5058630;28;19925;-74
2022/05/01 09:37:26;;;;;;;;;;;;;;;;;;5052723;28;20361;-74
2022/05/01 09:39:52;;;;;;;;;;;;;;;;;;5061098;28;19951;-73
2022/05/01 09:42:21;;;;;;;;;;;;;;;;;;5087608;22;19931;-76
2022/05/01 09:44:47;;;;;;;;;;;;;;;;;;5075083;28;19925;-79
2022/05/01 09:47:13;;;;;;;;;;;;;;;;;;5071705;28;19924;-78
2022/05/01 09:49:39;;;;;;;;;;;;;;;;;;5073501;28;19924;-79
2022/05/01 09:52:05;;;;;;;;;;;;;;;;;;5083396;28;19931;-78
2022/05/01 09:54:31;;;;;;;;;;;;;;;;;;5080498;28;19935;-77
2022/05/01 09:56:57;;;;;;;;;;;;;;;;;;5081522;28;19935;-79
2022/05/01 09:59:23;;;;;;;;;;;;;;;;;;5074434;28;20018;-76
2022/05/01 10:01:50;;;;;;;;;;;;;;;;;;5077069;28;19924;-77
2022/05/01 10:04:16;;;;;;;;;;;;;;;;;;5077692;28;19931;-77
2022/05/01 10:06:42;;;;;;;;;;;;;;;;;;5077855;28;19936;-75
2022/05/01 10:09:08;;;;;;;;;;;;;;;;;;5082993;28;20404;-77
2022/05/01 10:11:34;;;;;;;;;;;;;;;;;;5074213;28;20055;-74
2022/05/01 10:14:00;;;;;;;;;;;;;;;;;;5081916;28;19935;-75
2022/05/01 10:16:26;;;;;;;;;;;;;;;;;;5074874;28;19924;-79
2022/05/01 10:18:53;;;;;;;;;;;;;;;;;;5079522;28;19924;-76
2022/05/01 10:21:19;;;;;;;;;;;;;;;;;;5071652;28;19928;-74
2022/05/01 10:23:45;;;;;;;;;;;;;;;;;;5080233;28;19924;-74
2022/05/01 10:26:11;;;;;;;;;;;;;;;;;;5084782;28;20310;-76
2022/05/01 10:28:37;;;;;;;;;;;;;;;;;;5082748;28;20022;-77
2022/05/01 10:33:49;;;;;;;;;;;;;;;;;;5087985;28;19930;-76
2022/05/01 10:36:15;;;;;;;;;;;;;;;;;;5078448;28;19931;-76
2022/05/01 10:38:41;;;;;;;;;;;;;;;;;;5076087;28;19929;-76
2022/05/01 10:41:08;;;;;;;;;;;;;;;;;;5083951;28;19929;-76
2022/05/01 10:43:35;;;;;;;;;;;;;;;;;;5074885;28;19936;-76
2022/05/01 10:46:02;;;;;;;;;;;;;;;;;;5072150;28;19932;-76
2022/05/01 10:48:28;;;;;;;;;;;;;;;;;;5071693;28;19924;-77
2022/05/01 10:50:54;;;;;;;;;;;;;;;;;;5085698;28;19924;-75
2022/05/01 10:53:20;;;;;;;;;;;;;;;;;;4368492;28;10000787;-77
2022/05/01 10:55:46;;;;;;;;;;;;;;;;;;5071178;28;20027;-77
2022/05/01 10:58:12;;;;;;;;;;;;;;;;;;5077456;28;19924;-77
2022/05/01 11:00:39;;;;;;;;;;;;;;;;;;5077452;28;19928;-74
2022/05/01 11:03:05;;;;;;;;;;;;;;;;;;5074875;28;19928;-77
2022/05/01 11:05:31;;;;;;;;;;;;;;;;;;5077891;28;19931;-77
2022/05/01 11:07:57;;;;;;;;;;;;;;;;;;5081979;28;19928;-75
2022/05/01 11:10:23;;;;;;;;;;;;;;;;;;5076385;28;19928;-74
2022/05/01 11:12:50;;;;;;;;;;;;;;;;;;5069670;28;19931;-74
2022/05/01 11:15:16;;;;;;;;;;;;;;;;;;5080481;28;20073;-77
2022/05/01 11:17:44;;;;;;;;;;;;;;;;;;5070551;28;19933;-74
2022/05/01 11:20:10;;;;;;;;;;;;;;;;;;5079003;28;19930;-77
2022/05/01 11:22:36;;;;;;;;;;;;;;;;;;5079100;28;19924;-77
2022/05/01 11:25:03;;;;;;;;;;;;;;;;;;5075877;28;19938;-76
2022/05/01 11:27:29;;;;;;;;;;;;;;;;;;5074597;28;20615;-74
2022/05/01 11:29:55;;;;;;;;;;;;;;;;;;5079368;28;20418;-77
2022/05/01 11:32:22;;;;;;;;;;;;;;;;;;5073045;28;19932;-78
2022/05/01 11:34:48;;;;;;;;;;;;;;;;;;5081543;28;19935;-77
2022/05/01 11:37:14;;;;;;;;;;;;;;;;;;5083933;28;20295;-76
2022/05/01 11:39:40;;;;;;;;;;;;;;;;;;5082529;28;20377;-77
2022/05/01 11:42:07;;;;;;;;;;;;;;;;;;5083113;28;19937;-76
2022/05/01 11:44:33;;;;;;;;;;;;;;;;;;5079642;28;19928;-76
2022/05/01 11:46:59;;;;;;;;;;;;;;;;;;5075900;28;19928;-76
2022/05/01 11:49:25;;;;;;;;;;;;;;;;;;5081377;28;19928;-77
2022/05/01 11:51:51;;;;;;;;;;;;;;;;;;5080817;28;19935;-74
2022/05/01 11:54:17;;;;;;;;;;;;;;;;;;5079556;28;19929;-75
2022/05/01 12:02:27;;;;;;;;;;;;;;;;;;5083230;28;19970;-76
2022/05/01 12:04:53;;;;;;;;;;;;;;;;;;5081760;28;20736;-76
2022/05/01 12:07:19;;;;;;;;;;;;;;;;;;5082721;28;19928;-76
2022/05/01 12:09:46;;;;;;;;;;;;;;;;;;5079971;28;19928;-76
2022/05/01 12:12:12;;;;;;;;;;;;;;;;;;5078957;28;19928;-76
2022/05/01 12:14:38;;;;;;;;;;;;;;;;;;5074681;28;19928;-74
2022/05/01 12:17:04;;;;;;;;;;;;;;;;;;5069390;28;20021;-79
2022/05/01 12:19:31;;;;;;;;;;;;;;;;;;5062299;28;20384;-79
2022/05/01 12:21:57;;;;;;;;;;;;;;;;;;5069045;28;20331;-76
2022/05/01 12:24:24;;;;;;;;;;;;;;;;;;5069268;28;20490;-79
2022/05/01 12:26:52;;;;;;;;;;;;;;;;;;5081459;28;19927;-77
2022/05/01 12:29:18;;;;;;;;;;;;;;;;;;5071337;28;20399;-75
2022/05/01 12:31:44;;;;;;;;;;;;;;;;;;5069789;28;19928;-77
2022/05/01 12:34:10;;;;;;;;;;;;;;;;;;5066281;28;20028;-76
2022/05/01 12:36:37;;;;;;;;;;;;;;;;;;5081840;28;20496;-75
2022/05/01 12:39:03;;;;;;;;;;;;;;;;;;5083383;28;20466;-74
2022/05/01 12:44:13;;;;;;;;;;;;;;;;;;5075049;28;19927;-77
2022/05/01 12:46:39;;;;;;;;;;;;;;;;;;5074260;28;20318;-76
2022/05/01 12:49:05;;;;;;;;;;;;;;;;;;5081591;28;19981;-78
2022/05/01 12:51:32;;;;;;;;;;;;;;;;;;5083432;28;19943;-76
2022/05/01 12:53:58;;;;;;;;;;;;;;;;;;5084095;28;19928;-75
2022/05/01 12:56:24;;;;;;;;;;;;;;;;;;5082462;28;19934;-77
2022/05/01 12:58:50;;;;;;;;;;;;;;;;;;5077935;28;20224;-73
2022/05/01 13:01:16;;;;;;;;;;;;;;;;;;5072011;28;19935;-76
2022/05/01 13:03:42;;;;;;;;;;;;;;;;;;5081051;28;19932;-78
2022/05/01 13:06:09;;;;;;;;;;;;;;;;;;5085009;28;19928;-76
2022/05/01 13:08:35;;;;;;;;;;;;;;;;;;5078036;28;19928;-77
2022/05/01 13:11:01;;;;;;;;;;;;;;;;;;5077207;28;19951;-74
2022/05/01 13:13:27;;;;;;;;;;;;;;;;;;5085240;28;19935;-77
2022/05/01 13:15:53;;;;;;;;;;;;;;;;;;5100253;28;19939;-81
2022/05/01 13:18:19;;;;;;;;;;;;;;;;;;5089081;28;19932;-77
2022/05/01 13:20:45;;;;;;;;;;;;;;;;;;5078003;28;19928;-78
2022/05/01 13:23:12;;;;;;;;;;;;;;;;;;5082639;28;19936;-73
2022/05/01 13:25:38;;;;;;;;;;;;;;;;;;5083117;28;19928;-78
2022/05/01 13:28:05;;;;;;;;;;;;;;;;;;5082111;28;20338;-75
2022/05/01 13:30:32;;;;;;;;;;;;;;;;;;5083461;28;20028;-75
2022/05/01 13:32:58;;;;;;;;;;;;;;;;;;5079910;28;19928;-75
2022/05/01 13:35:24;;;;;;;;;;;;;;;;;;5073035;28;19928;-76
2022/05/01 13:37:53;;;;;;;;;;;;;;;;;;5070009;28;19935;-77
2022/05/01 13:45:47;;;;;;;;;;;;;;;;;;5075688;28;19973;-77
2022/05/01 13:48:13;;;;;;;;;;;;;;;;;;5078509;28;19931;-76
2022/05/01 13:50:40;;;;;;;;;;;;;;;;;;5065734;28;19997;-76
2022/05/01 13:53:12;;;;;;;;;;;;;;;;;;5077061;28;20426;-74
2022/05/01 13:55:39;;;;;;;;;;;;;;;;;;5068444;28;19960;-76
2022/05/01 13:58:06;;;;;;;;;;;;;;;;;;5070002;28;20655;-76
2022/05/01 14:00:33;;;;;;;;;;;;;;;;;;5076215;28;20310;-76
2022/05/01 14:03:00;;;;;;;;;;;;;;;;;;5068107;28;19950;-73
2022/05/01 14:05:26;;;;;;;;;;;;;;;;;;5070306;28;20002;-75
2022/05/01 14:07:52;;;;;;;;;;;;;;;;;;5067032;28;19935;-77
2022/05/01 14:10:18;;;;;;;;;;;;;;;;;;5065019;28;19932;-79
2022/05/01 14:12:46;;;;;;;;;;;;;;;;;;5065533;28;20667;-77
2022/05/01 14:15:12;;;;;;;;;;;;;;;;;;5067087;28;20402;-74
2022/05/01 14:17:38;;;;;;;;;;;;;;;;;;5064917;28;20504;-74
2022/05/01 14:20:04;;;;;;;;;;;;;;;;;;5068501;28;20426;-76
2022/05/01 14:22:30;;;;;;;;;;;;;;;;;;5067741;28;19935;-75
2022/05/01 14:24:56;;;;;;;;;;;;;;;;;;5068824;28;19951;-77
2022/05/01 14:27:23;;;;;;;;;;;;;;;;;;5068991;28;19928;-76
2022/05/01 14:29:49;;;;;;;;;;;;;;;;;;5068844;28;19925;-75
2022/05/01 14:32:15;;;;;;;;;;;;;;;;;;5068583;28;19947;-76
2022/05/01 14:34:44;;;;;;;;;;;;;;;;;;5078548;28;19932;-76
2022/05/01 14:37:11;;;;;;;;;;;;;;;;;;5085800;28;19989;-73
2022/05/01 14:39:37;;;;;;;;;;;;;;;;;;5087967;28;19935;-76
2022/05/01 14:42:04;;;;;;;;;;;;;;;;;;5085642;28;20372;-76
2022/05/01 14:44:30;;;;;;;;;;;;;;;;;;5079787;28;20302;-76
2022/05/01 14:46:57;;;;;;;;;;;;;;;;;;5077871;28;19985;-76
2022/05/01 14:49:23;;;;;;;;;;;;;;;;;;5086446;28;19924;-76
2022/05/01 14:51:49;;;;;;;;;;;;;;;;;;5083346;28;20056;-74
2022/05/01 14:54:15;;;;;;;;;;;;;;;;;;5080997;28;19933;-77
2022/05/01 14:56:41;;;;;;;;;;;;;;;;;;5087150;28;19979;-78
2022/05/01 15:07:19;;;;;;;;;;;;;;;;;;5083898;28;19922;-77
2022/05/01 15:09:46;;;;;;;;;;;;;;;;;;5075489;28;19938;-78
2022/05/01 15:12:12;;;;;;;;;;;;;;;;;;5081089;28;19950;-77
2022/05/01 15:14:38;;;;;;;;;;;;;;;;;;5077761;28;19928;-76
2022/05/01 15:17:04;;;;;;;;;;;;;;;;;;5068440;28;19932;-77
2022/05/01 15:19:32;;;;;;;;;;;;;;;;;;5074447;28;19924;-77
2022/05/01 15:24:41;;;;;;;;;;;;;;;;;;5075491;28;19920;-78
2022/05/01 15:27:08;;;;;;;;;;;;;;;;;;5073180;28;19929;-78
2022/05/01 15:29:34;;;;;;;;;;;;;;;;;;5072361;28;19931;-76
2022/05/01 15:32:00;;;;;;;;;;;;;;;;;;5072181;28;19924;-76
2022/05/01 15:34:33;;;;;;;;;;;;;;;;;;5079201;28;19943;-76
2022/05/01 15:36:59;;;;;;;;;;;;;;;;;;5072253;28;19964;-76
2022/05/01 15:39:25;;;;;;;;;;;;;;;;;;5070704;28;19928;-77
2022/05/01 15:41:53;;;;;;;;;;;;;;;;;;5076502;28;19935;-76
2022/05/01 15:44:19;;;;;;;;;;;;;;;;;;5105437;22;19923;-74
2022/05/01 15:46:45;;;;;;;;;;;;;;;;;;5096211;27;19931;-72
2022/05/01 15:54:40;;;;;;;;;;;;;;;;;;5102094;27;19923;-71
2022/05/01 15:57:06;;;;;;;;;;;;;;;;;;5100631;27;20166;-70
2022/05/01 15:59:32;;;;;;;;;;;;;;;;;;5102895;27;20041;-72
2022/05/01 16:01:59;;;;;;;;;;;;;;;;;;5103155;27;19928;-74
2022/05/01 16:04:26;;;;;;;;;;;;;;;;;;5100010;27;20160;-71
2022/05/01 16:06:52;;;;;;;;;;;;;;;;;;5102578;27;19928;-72
2022/05/01 16:09:18;;;;;;;;;;;;;;;;;;5100389;27;20314;-74
2022/05/01 16:11:44;;;;;;;;;;;;;;;;;;5098978;28;20299;-75
2022/05/01 16:14:13;;;;;;;;;;;;;;;;;;5099699;27;20025;-75
2022/05/01 16:16:39;;;;;;;;;;;;;;;;;;5092264;27;19950;-73
2022/05/01 16:19:05;;;;;;;;;;;;;;;;;;5099001;27;19951;-74
2022/05/01 16:21:31;;;;;;;;;;;;;;;;;;5098013;28;19928;-73
2022/05/01 16:23:57;;;;;;;;;;;;;;;;;;5097808;28;19928;-71
2022/05/01 16:26:23;;;;;;;;;;;;;;;;;;5089321;27;19935;-74
2022/05/01 16:28:50;;;;;;;;;;;;;;;;;;5095022;27;19928;-73
2022/05/01 16:31:16;;;;;;;;;;;;;;;;;;5101436;27;19967;-73
2022/05/01 16:33:42;;;;;;;;;;;;;;;;;;5098706;28;19927;-74
2022/05/01 16:36:09;;;;;;;;;;;;;;;;;;5101421;27;19935;-73
2022/05/01 16:38:35;;;;;;;;;;;;;;;;;;5100504;28;20334;-71
2022/05/01 16:41:02;;;;;;;;;;;;;;;;;;5101335;27;20405;-72
2022/05/01 16:43:29;;;;;;;;;;;;;;;;;;5096367;28;20000;-73
2022/05/01 16:45:56;;;;;;;;;;;;;;;;;;5100107;28;20426;-71
2022/05/01 16:48:22;;;;;;;;;;;;;;;;;;5096898;28;20020;-75
2022/05/01 16:50:49;;;;;;;;;;;;;;;;;;5092758;27;20312;-72
2022/05/01 16:53:16;;;;;;;;;;;;;;;;;;5090264;28;19928;-74
2022/05/01 16:55:42;;;;;;;;;;;;;;;;;;5097556;28;19928;-71
2022/05/01 16:58:08;;;;;;;;;;;;;;;;;;5103595;27;19927;-72
2022/05/01 17:00:35;;;;;;;;;;;;;;;;;;5095041;28;19932;-74
2022/05/01 17:03:02;;;;;;;;;;;;;;;;;;5099358;27;19992;-72
2022/05/01 17:05:28;;;;;;;;;;;;;;;;;;5102055;27;20013;-75
2022/05/01 17:07:54;;;;;;;;;;;;;;;;;;5101438;27;19981;-74
2022/05/01 17:10:20;;;;;;;;;;;;;;;;;;5097018;28;19927;-73
2022/05/01 17:12:46;;;;;;;;;;;;;;;;;;5102816;27;20133;-73
2022/05/01 17:15:13;;;;;;;;;;;;;;;;;;5104456;27;20018;-73
2022/05/01 17:17:39;;;;;;;;;;;;;;;;;;5104372;27;19927;-72
2022/05/01 17:20:07;;;;;;;;;;;;;;;;;;5095838;28;19951;-73
2022/05/01 17:22:33;;;;;;;;;;;;;;;;;;5095279;28;20344;-74
2022/05/01 17:25:00;;;;;;;;;;;;;;;;;;5099687;28;20398;-76
2022/05/01 17:27:26;;;;;;;;;;;;;;;;;;5097631;28;19928;-77
2022/05/01 17:29:52;;;;;;;;;;;;;;;;;;5108133;27;20319;-77
2022/05/01 17:32:18;;;;;;;;;;;;;;;;;;5100756;28;19928;-76
2022/05/01 17:34:44;;;;;;;;;;;;;;;;;;5094473;27;20294;-73
2022/05/01 17:37:13;;;;;;;;;;;;;;;;;;5095480;28;19924;-74
2022/05/01 17:39:39;;;;;;;;;;;;;;;;;;5096513;27;20386;-72